Time;durP1;ratioP1;P1;durP2;ratioP2;P2;SDS_P1;SDS_P2;PMS_P1;PMS_P2;Temp;Humidity;BMP_temperature;BMP_pressure;BME280_temperature;BME280_humidity;BME280_pressure;Samples;Min_cycle;Max_cycle;Signal;HPM_P1;HPM_P2
2024/03/18 00:00:22;;;;;;;3.90;2.80;;;;;;;4.11;65.93;98721.38;105683;1253;60979;-27
2024/03/18 00:02:52;;;;;;;9.60;2.50;;;;;;;3.91;66.65;98720.64;105640;1252;61827;-27
2024/03/18 00:05:20;;;;;;;7.20;2.80;;;;;;;3.69;67.37;98718.63;105698;1260;73533;-27
2024/03/18 00:07:47;;;;;;;5.10;2.20;;;;;;;3.55;67.76;98718.61;105696;1260;74305;-27
2024/03/18 00:10:14;;;;;;;2.40;1.50;;;;;;;3.37;68.48;98719.12;105634;1254;72516;-27
2024/03/18 00:12:43;;;;;;;3.80;1.50;;;;;;;3.90;68.19;98716.73;105737;1252;61095;-27
2024/03/18 00:15:13;;;;;;;4.40;1.90;;;;;;;4.64;66.07;98712.66;105614;1257;61160;-27
2024/03/18 00:17:41;;;;;;;7.50;2.60;;;;;;;4.76;64.60;98707.95;105567;1260;73871;-27
2024/03/18 00:20:10;;;;;;;5.30;2.60;;;;;;;4.72;64.60;98705.11;105690;1259;74251;-27
2024/03/18 00:22:41;;;;;;;3.40;1.60;;;;;;;4.57;64.73;98702.79;105819;1257;71573;-27
2024/03/18 00:25:09;;;;;;;5.90;2.20;;;;;;;4.34;65.39;98703.63;105597;1252;61276;-27
2024/03/18 00:27:37;;;;;;;3.30;2.20;;;;;;;4.12;65.94;98698.27;105694;1252;61216;-28
2024/03/18 00:30:11;;;;;;;5.70;2.20;;;;;;;3.93;66.60;98695.95;105611;1254;74506;-27
2024/03/18 00:32:41;;;;;;;2.40;1.60;;;;;;;3.70;67.79;98693.53;105667;1260;74390;-27
2024/03/18 00:35:13;;;;;;;2.70;1.60;;;;;;;4.24;67.31;98689.66;105488;1260;72608;-27
2024/03/18 00:37:40;;;;;;;5.50;1.70;;;;;;;4.87;65.06;98686.29;105819;1256;61666;-27
2024/03/18 00:40:11;;;;;;;6.20;2.30;;;;;;;4.94;64.15;98680.02;105842;1256;61166;-28
2024/03/18 00:42:37;;;;;;;4.60;2.30;;;;;;;4.76;64.41;98678.39;105732;1260;74627;-27
2024/03/18 00:45:06;;;;;;;5.00;2.30;;;;;;;4.56;64.87;98673.63;105920;1257;74117;-27
2024/03/18 00:47:33;;;;;;;5.00;2.20;;;;;;;4.34;65.54;98676.32;105690;1259;71638;-27
2024/03/18 00:50:00;;;;;;;6.50;2.60;;;;;;;4.07;66.60;98673.30;105893;1256;61257;-27
2024/03/18 00:52:27;;;;;;;6.30;2.50;;;;;;;3.83;67.59;98670.65;105973;1255;61142;-27
2024/03/18 00:54:54;;;;;;;6.70;2.00;;;;;;;3.57;68.76;98670.10;105913;1254;74656;-27
2024/03/18 00:57:22;;;;;;;3.70;2.60;;;;;;;3.97;68.44;98661.70;105870;1256;74298;-27
2024/03/18 00:59:49;;;;;;;6.20;2.70;;;;;;;4.62;66.23;98662.73;105820;1257;72311;-27
2024/03/18 01:02:16;;;;;;;6.00;3.00;;;;;;;4.76;65.36;98664.29;105581;1254;61342;-27
2024/03/18 01:04:43;;;;;;;5.60;2.30;;;;;;;4.61;65.38;98664.01;105769;1257;61231;-27
2024/03/18 01:07:10;;;;;;;7.40;2.30;;;;;;;4.40;66.06;98658.08;105708;1254;74426;-27
2024/03/18 01:09:39;;;;;;;6.30;2.50;;;;;;;4.23;66.57;98660.63;105891;1256;74666;-27
2024/03/18 01:12:07;;;;;;;3.70;2.40;;;;;;;4.14;66.86;98656.60;105837;1257;72637;-27
2024/03/18 01:14:34;;;;;;;5.60;2.20;;;;;;;3.98;67.40;98658.05;105515;1255;61250;-27
2024/03/18 01:17:02;;;;;;;8.90;2.30;;;;;;;3.74;68.40;98653.63;105672;1259;61266;-27
2024/03/18 01:19:29;;;;;;;3.70;2.30;;;;;;;4.23;68.02;98657.40;105786;1257;74957;-27
2024/03/18 01:21:56;;;;;;;5.10;2.20;;;;;;;4.90;66.07;98657.03;105869;1260;74290;-27
2024/03/18 01:24:23;;;;;;;3.60;2.40;;;;;;;5.03;65.03;98656.87;105775;1257;72315;-27
2024/03/18 01:26:50;;;;;;;8.20;2.30;;;;;;;4.94;64.95;98658.30;105691;1252;61336;-27
2024/03/18 01:29:17;;;;;;;3.60;2.10;;;;;;;4.70;65.68;98660.02;105790;1266;61264;-27
2024/03/18 01:31:44;;;;;;;4.50;2.50;;;;;;;4.49;66.19;98655.48;105807;1256;74476;-27
2024/03/18 01:34:11;;;;;;;3.90;2.10;;;;;;;4.33;66.56;98654.58;105890;1257;74982;-29
2024/03/18 01:36:38;;;;;;;4.50;2.00;;;;;;;4.15;66.88;98656.70;105847;1256;72664;-27
2024/03/18 01:39:05;;;;;;;4.80;2.70;;;;;;;3.99;67.31;98655.06;105879;1257;61263;-27
2024/03/18 01:41:32;;;;;;;4.10;2.10;;;;;;;3.83;67.99;98655.52;105874;1257;61281;-27
2024/03/18 01:43:59;;;;;;;4.20;2.10;;;;;;;4.36;67.85;98657.13;105914;1256;74496;-27
2024/03/18 01:46:26;;;;;;;6.20;3.00;;;;;;;5.15;66.19;98653.88;105643;1256;74134;-27
2024/03/18 01:48:53;;;;;;;4.20;2.30;;;;;;;5.42;64.90;98657.24;105828;1257;72422;-27
2024/03/18 01:51:20;;;;;;;5.90;2.40;;;;;;;5.33;64.67;98656.84;105896;1254;61352;-27
2024/03/18 01:53:47;;;;;;;4.30;1.90;;;;;;;5.08;64.66;98657.23;105747;1252;61222;-27
2024/03/18 01:56:15;;;;;;;5.80;1.80;;;;;;;4.83;65.29;98657.28;105665;1254;74443;-27
2024/03/18 01:58:44;;;;;;;5.20;2.00;;;;;;;4.61;65.81;98652.17;105825;1254;74222;-30
2024/03/18 02:01:11;;;;;;;5.10;2.70;;;;;;;4.49;66.21;98651.86;105885;1254;72623;-29
2024/03/18 02:03:38;;;;;;;4.00;2.70;;;;;;;4.34;66.48;98650.75;105870;1253;61403;-28
2024/03/18 02:06:06;;;;;;;3.90;1.90;;;;;;;4.12;66.95;98647.78;105610;1256;61292;-28
2024/03/18 02:08:34;;;;;;;4.00;2.00;;;;;;;4.58;66.97;98647.02;105769;1257;74999;-29
2024/03/18 02:11:00;;;;;;;7.50;2.60;;;;;;;5.46;64.95;98648.78;105862;1256;74783;-27
2024/03/18 02:13:27;;;;;;;3.60;2.30;;;;;;;5.57;64.04;98650.10;105835;1256;72668;-27
2024/03/18 02:15:54;;;;;;;3.20;2.10;;;;;;;5.40;64.01;98644.98;105812;1254;61314;-27
2024/03/18 02:18:21;;;;;;;3.50;1.80;;;;;;;5.18;64.55;98643.87;105568;1254;61253;-27
2024/03/18 02:20:48;;;;;;;3.50;2.00;;;;;;;4.93;64.84;98647.34;105723;1254;74626;-27
2024/03/18 02:23:15;;;;;;;5.80;2.30;;;;;;;4.72;65.20;98647.83;105567;1260;74359;-27
2024/03/18 02:25:42;;;;;;;3.00;2.00;;;;;;;4.51;65.67;98646.54;105577;1257;72309;-27
2024/03/18 02:28:09;;;;;;;5.30;2.50;;;;;;;4.31;66.20;98646.46;105584;1253;61272;-27
2024/03/18 02:30:37;;;;;;;4.40;2.50;;;;;;;4.07;67.09;98644.46;105863;1262;61136;-27
2024/03/18 02:33:04;;;;;;;6.20;2.50;;;;;;;4.56;67.24;98647.13;105878;1257;75204;-27
2024/03/18 02:35:31;;;;;;;5.50;2.60;;;;;;;5.11;65.76;98644.81;105740;1256;74019;-27
2024/03/18 02:37:58;;;;;;;6.60;3.00;;;;;;;5.24;65.00;98644.01;105604;1257;73202;-27
2024/03/18 02:40:25;;;;;;;3.90;2.00;;;;;;;5.04;65.10;98642.68;105728;1257;61339;-27
2024/03/18 02:42:53;;;;;;;4.40;2.50;;;;;;;4.75;65.56;98642.33;105907;1257;61177;-27
2024/03/18 02:45:20;;;;;;;5.70;2.30;;;;;;;4.51;66.19;98639.87;105949;1256;74559;-27
2024/03/18 02:47:47;;;;;;;4.10;2.70;;;;;;;4.31;66.79;98636.48;105808;1256;74201;-27
2024/03/18 02:50:18;;;;;;;4.50;2.40;;;;;;;3.97;67.82;98636.45;105512;1257;72429;-27
2024/03/18 02:52:45;;;;;;;4.20;2.30;;;;;;;3.73;68.96;98633.80;105580;1257;61340;-27
2024/03/18 02:55:12;;;;;;;5.30;3.10;;;;;;;4.09;69.22;98632.98;105657;1254;61328;-27
2024/03/18 02:57:40;;;;;;;8.80;2.80;;;;;;;4.78;67.34;98631.10;105759;1257;74677;-27
2024/03/18 03:00:08;;;;;;;4.20;2.40;;;;;;;4.90;66.51;98628.08;105673;1257;74349;-27
2024/03/18 03:02:36;;;;;;;3.00;2.10;;;;;;;4.79;66.42;98626.05;105635;1259;71141;-27
2024/03/18 03:05:04;;;;;;;4.50;2.40;;;;;;;4.57;66.65;98622.46;105832;1254;61310;-27
2024/03/18 03:07:31;;;;;;;4.90;2.60;;;;;;;4.33;67.22;98621.20;105690;1254;61288;-27
2024/03/18 03:09:58;;;;;;;3.90;2.00;;;;;;;4.19;67.60;98620.73;105927;1254;74517;-27
2024/03/18 03:12:26;;;;;;;3.40;2.10;;;;;;;4.01;67.96;98623.00;105938;1257;74236;-27
2024/03/18 03:14:53;;;;;;;3.60;2.10;;;;;;;3.75;68.88;98619.38;105907;1256;72558;-27
2024/03/18 03:17:23;;;;;;;5.00;2.40;;;;;;;4.14;69.08;98618.12;105896;1258;61564;-27
2024/03/18 03:19:53;;;;;;;5.80;3.00;;;;;;;4.79;67.35;98619.05;105850;1254;61816;-27
2024/03/18 03:22:20;;;;;;;2.70;2.20;;;;;;;4.88;66.41;98612.73;105673;1260;74411;-27
2024/03/18 03:24:47;;;;;;;4.10;2.80;;;;;;;4.73;66.62;98612.70;105748;1254;74650;-27
2024/03/18 03:27:15;;;;;;;3.90;2.00;;;;;;;4.57;66.80;98614.73;105860;1256;72389;-27
2024/03/18 03:29:43;;;;;;;5.10;2.40;;;;;;;4.45;66.90;98614.16;105865;1257;61332;-27
2024/03/18 03:32:10;;;;;;;3.50;2.00;;;;;;;4.22;67.36;98619.64;105812;1256;61208;-27
2024/03/18 03:34:38;;;;;;;4.20;2.10;;;;;;;4.04;67.89;98620.25;105908;1253;73758;-27
2024/03/18 03:37:07;;;;;;;5.70;2.10;;;;;;;3.84;68.52;98619.56;105697;1259;74141;-27
2024/03/18 03:39:35;;;;;;;8.80;2.50;;;;;;;4.27;68.66;98615.36;105920;1256;71505;-27
2024/03/18 03:42:06;;;;;;;4.70;2.50;;;;;;;4.93;66.74;98616.06;105603;1254;61262;-27
2024/03/18 03:44:34;;;;;;;8.30;2.70;;;;;;;4.98;65.87;98612.16;105533;1259;61583;-27
2024/03/18 03:47:01;;;;;;;4.70;2.40;;;;;;;4.86;65.95;98613.56;105730;1254;74534;-27
2024/03/18 03:49:28;;;;;;;3.00;2.20;;;;;;;4.60;66.54;98612.49;105770;1256;74799;-27
2024/03/18 03:51:56;;;;;;;8.20;2.90;;;;;;;4.29;67.56;98613.38;105878;1253;72618;-27
2024/03/18 03:54:25;;;;;;;6.40;3.00;;;;;;;4.06;68.45;98614.29;105850;1257;61332;-27
2024/03/18 03:56:52;;;;;;;7.40;3.10;;;;;;;3.89;68.93;98616.71;105945;1256;61191;-27
2024/03/18 03:59:19;;;;;;;3.50;2.10;;;;;;;3.68;69.75;98613.64;105886;1260;74653;-27
2024/03/18 04:01:46;;;;;;;4.70;2.10;;;;;;;4.17;69.61;98618.60;105912;1257;74550;-27
2024/03/18 04:04:13;;;;;;;5.50;3.20;;;;;;;4.87;67.46;98620.58;105544;1255;72608;-28
2024/03/18 04:06:41;;;;;;;3.70;2.00;;;;;;;4.98;66.41;98618.16;105562;1254;61327;-27
2024/03/18 04:09:10;;;;;;;5.50;2.40;;;;;;;4.80;66.50;98620.54;105779;1257;61224;-27
2024/03/18 04:11:38;;;;;;;3.80;2.30;;;;;;;4.54;67.22;98621.09;105537;1256;74596;-27
2024/03/18 04:14:05;;;;;;;6.80;2.60;;;;;;;4.33;67.89;98621.77;105820;1257;74064;-26
2024/03/18 04:16:33;;;;;;;4.40;2.60;;;;;;;4.08;68.96;98620.52;105907;1254;72637;-27
2024/03/18 04:19:00;;;;;;;8.00;2.80;;;;;;;3.91;69.49;98621.87;105690;1261;61297;-27
2024/03/18 04:21:29;;;;;;;4.40;2.10;;;;;;;3.70;70.52;98624.33;105854;1257;61176;-27
2024/03/18 04:23:57;;;;;;;6.30;2.60;;;;;;;4.26;69.71;98626.78;105899;1259;74803;-27
2024/03/18 04:26:24;;;;;;;6.60;2.60;;;;;;;4.92;67.78;98627.28;105667;1260;74119;-27
2024/03/18 04:28:51;;;;;;;4.70;2.20;;;;;;;5.04;66.76;98624.14;105727;1254;73087;-27
2024/03/18 04:31:20;;;;;;;4.60;2.50;;;;;;;4.92;66.63;98626.42;105502;1257;61333;-27
2024/03/18 04:33:48;;;;;;;6.60;2.60;;;;;;;4.72;67.16;98630.84;105653;1257;61222;-27
2024/03/18 04:36:15;;;;;;;5.70;2.10;;;;;;;4.53;67.84;98628.93;105852;1255;74387;-27
2024/03/18 04:38:42;;;;;;;4.80;2.10;;;;;;;4.36;68.53;98626.38;105651;1258;74185;-27
2024/03/18 04:41:09;;;;;;;5.50;2.60;;;;;;;4.19;69.20;98624.00;105617;1254;72705;-27
2024/03/18 04:43:38;;;;;;;3.50;2.30;;;;;;;3.98;69.76;98626.61;105796;1254;61244;-27
2024/03/18 04:46:06;;;;;;;5.90;2.40;;;;;;;4.52;69.56;98631.39;105843;1257;61154;-27
2024/03/18 04:48:33;;;;;;;4.70;2.30;;;;;;;5.18;67.28;98631.12;105899;1254;74531;-27
2024/03/18 04:51:00;;;;;;;5.30;2.40;;;;;;;5.16;66.60;98634.89;105910;1254;74214;-27
2024/03/18 04:53:28;;;;;;;5.50;2.60;;;;;;;4.92;66.90;98634.01;105818;1258;72304;-27
2024/03/18 04:55:55;;;;;;;4.90;3.00;;;;;;;4.73;67.50;98636.64;105898;1257;61336;-27
2024/03/18 04:58:22;;;;;;;4.90;2.60;;;;;;;4.54;68.24;98636.60;105929;1257;61269;-28
2024/03/18 05:00:50;;;;;;;4.50;3.00;;;;;;;4.33;68.98;98638.23;105842;1254;75125;-29
2024/03/18 05:03:17;;;;;;;4.30;2.00;;;;;;;4.08;70.05;98639.94;105909;1257;74256;-27
2024/03/18 05:05:44;;;;;;;6.80;2.40;;;;;;;4.56;69.60;98642.81;105784;1256;72410;-27
2024/03/18 05:08:11;;;;;;;6.30;3.00;;;;;;;5.24;67.44;98642.61;105767;1257;62322;-27
2024/03/18 05:10:39;;;;;;;3.50;2.00;;;;;;;5.33;66.69;98643.60;105865;1256;61225;-27
2024/03/18 05:13:06;;;;;;;4.20;2.50;;;;;;;5.15;66.87;98647.01;105751;1257;74611;-27
2024/03/18 05:15:33;;;;;;;3.60;2.70;;;;;;;4.90;67.80;98651.14;105809;1257;74444;-27
2024/03/18 05:18:00;;;;;;;4.60;2.10;;;;;;;4.67;68.75;98655.05;105887;1254;72563;-27
2024/03/18 05:20:28;;;;;;;5.40;2.60;;;;;;;4.44;69.79;98655.10;105897;1254;61358;-26
2024/03/18 05:22:56;;;;;;;3.70;1.90;;;;;;;4.22;70.89;98658.30;105792;1256;61243;-27
2024/03/18 05:25:23;;;;;;;2.60;1.90;;;;;;;4.75;70.42;98659.52;105938;1254;74420;-27
2024/03/18 05:27:50;;;;;;;1.90;1.40;;;;;;;5.20;68.36;98654.73;105970;1256;74296;-27
2024/03/18 05:30:17;;;;;;;1.80;1.20;;;;;;;5.02;68.81;98653.35;105865;1256;72872;-27
2024/03/18 05:32:44;;;;;;;1.70;1.20;;;;;;;4.62;70.06;98652.23;105741;1252;61269;-27
2024/03/18 05:35:11;;;;;;;1.10;1.00;;;;;;;4.28;71.85;98654.02;105871;1252;61605;-27
2024/03/18 05:37:38;;;;;;;0.70;0.70;;;;;;;4.19;72.24;98655.22;105793;1256;74598;-27
2024/03/18 05:40:06;;;;;;;1.10;0.70;;;;;;;3.88;73.66;98655.22;105762;1257;74704;-27
2024/03/18 05:42:33;;;;;;;0.90;0.70;;;;;;;4.45;72.43;98658.98;105571;1254;72595;-27
2024/03/18 05:44:59;;;;;;;0.50;0.50;;;;;;;4.91;70.00;98659.19;105801;1257;61238;-27
2024/03/18 05:47:26;;;;;;;0.50;0.50;;;;;;;4.66;70.53;98661.63;105864;1256;61263;-27
2024/03/18 05:49:54;;;;;;;0.60;0.60;;;;;;;4.31;71.52;98658.80;105719;1254;75233;-27
2024/03/18 05:52:21;;;;;;;0.70;0.50;;;;;;;4.35;72.01;98662.16;105616;1258;74390;-27
2024/03/18 05:54:48;;;;;;;0.40;0.40;;;;;;;4.03;73.08;98660.85;105597;1254;72596;-27
2024/03/18 05:57:15;;;;;;;0.40;0.40;;;;;;;3.87;74.35;98661.27;105564;1257;61381;-27
2024/03/18 05:59:42;;;;;;;0.90;0.60;;;;;;;4.64;71.96;98662.46;105744;1257;61231;-27
2024/03/18 06:02:10;;;;;;;0.50;0.50;;;;;;;4.60;71.32;98665.77;105718;1254;74588;-27
2024/03/18 06:04:41;;;;;;;0.50;0.50;;;;;;;4.41;71.25;98664.19;105861;1256;74143;-27
2024/03/18 06:07:08;;;;;;;0.50;0.50;;;;;;;4.08;72.44;98662.58;105786;1257;72635;-28
2024/03/18 06:09:35;;;;;;;0.50;0.50;;;;;;;3.99;73.49;98665.39;105776;1254;61339;-27
2024/03/18 06:12:02;;;;;;;0.50;0.50;;;;;;;3.74;74.09;98671.11;105728;1256;61806;-27
2024/03/18 06:14:29;;;;;;;0.40;0.40;;;;;;;4.05;73.14;98668.93;105664;1254;74583;-27
2024/03/18 06:16:56;;;;;;;1.70;1.20;;;;;;;4.44;71.21;98667.16;105909;1254;74439;-27
2024/03/18 06:19:27;;;;;;;0.50;0.50;;;;;;;4.05;72.74;98674.80;105830;1255;72661;-27
2024/03/18 06:21:59;;;;;;;0.50;0.50;;;;;;;4.33;71.71;98677.27;105656;1254;61330;-27
2024/03/18 06:25:51;;;;;;;0.70;0.60;;;;;;;4.33;71.73;98678.13;105865;1254;61287;-27
2024/03/18 06:27:12;;;;;;;0.80;0.60;;;;;;;3.87;73.14;98672.11;105874;1254;74631;-27
2024/03/18 06:29:39;;;;;;;0.90;0.60;;;;;;;4.16;72.85;98672.43;105896;1254;74908;-27
2024/03/18 06:32:07;;;;;;;0.80;0.60;;;;;;;4.66;70.88;98676.08;105667;1253;72549;-29
2024/03/18 06:34:34;;;;;;;0.60;0.60;;;;;;;4.30;71.33;98671.73;105831;1257;62221;-27
2024/03/18 06:37:02;;;;;;;1.60;0.40;;;;;;;4.31;71.39;98671.67;105879;1252;61658;-27
2024/03/18 06:39:29;;;;;;;0.90;0.60;;;;;;;4.05;72.28;98671.23;105728;1254;74175;-27
2024/03/18 06:41:58;;;;;;;0.50;0.50;;;;;;;4.01;72.65;98675.02;105738;1257;76524;-27
2024/03/18 06:44:26;;;;;;;0.80;0.60;;;;;;;4.04;72.68;98677.08;105828;1254;74336;-27
2024/03/18 06:46:53;;;;;;;0.60;0.60;;;;;;;4.63;70.79;98682.41;105918;1254;61980;-28
2024/03/18 06:49:21;;;;;;;0.70;0.70;;;;;;;5.13;68.79;98681.71;105847;1257;62094;-27
2024/03/18 06:51:48;;;;;;;0.60;0.60;;;;;;;4.83;69.02;98682.40;105901;1257;74683;-28
2024/03/18 06:54:15;;;;;;;0.70;0.40;;;;;;;4.15;71.87;98677.64;105770;1256;74691;-28
2024/03/18 06:56:42;;;;;;;0.60;0.60;;;;;;;4.23;71.32;98678.67;105645;1253;72529;-28
2024/03/18 06:59:09;;;;;;;0.60;0.60;;;;;;;3.68;73.40;98679.58;105794;1255;61426;-28
2024/03/18 07:01:36;;;;;;;0.40;0.40;;;;;;;4.36;72.66;98679.45;105751;1254;61748;-28
2024/03/18 07:04:03;;;;;;;0.70;0.60;;;;;;;4.96;70.08;98682.10;105899;1254;74641;-28
2024/03/18 07:06:31;;;;;;;0.80;0.70;;;;;;;4.86;69.44;98678.63;105902;1255;76286;-28
2024/03/18 07:08:58;;;;;;;0.60;0.60;;;;;;;4.51;70.26;98674.42;105852;1252;72621;-28
2024/03/18 07:11:25;;;;;;;0.90;0.80;;;;;;;4.38;71.38;98676.42;105668;1252;61551;-27
2024/03/18 07:13:52;;;;;;;0.80;0.60;;;;;;;4.11;71.73;98670.98;105594;1257;61278;-28
2024/03/18 07:16:21;;;;;;;0.40;0.40;;;;;;;3.91;72.69;98674.45;105739;1254;75294;-28
2024/03/18 07:18:48;;;;;;;0.60;0.60;;;;;;;4.11;72.25;98671.36;105906;1254;75657;-28
2024/03/18 07:21:16;;;;;;;0.50;0.50;;;;;;;4.19;71.51;98677.41;105884;1254;74127;-28
2024/03/18 07:23:43;;;;;;;0.60;0.60;;;;;;;3.62;73.67;98675.25;105920;1254;61925;-28
2024/03/18 07:26:10;;;;;;;0.50;0.50;;;;;;;3.51;74.52;98677.63;105911;1254;62074;-28
2024/03/18 07:28:39;;;;;;;0.60;0.50;;;;;;;3.74;73.78;98669.42;105743;1257;74463;-28
2024/03/18 07:31:08;;;;;;;0.80;0.80;;;;;;;3.64;73.93;98672.59;105597;1256;75717;-28
2024/03/18 07:33:36;;;;;;;0.70;0.70;;;;;;;3.97;72.62;98668.45;105482;1254;74216;-28
2024/03/18 07:36:04;;;;;;;2.80;1.50;;;;;;;4.08;71.40;98675.33;105646;1257;61849;-28
2024/03/18 07:38:32;;;;;;;5.90;3.70;;;;;;;3.91;72.34;98673.92;105840;1258;62104;-28
2024/03/18 07:41:00;;;;;;;5.10;3.50;;;;;;;3.75;73.39;98675.56;105937;1254;76330;-28
2024/03/18 07:43:27;;;;;;;1.70;1.40;;;;;;;3.31;74.91;98675.00;105945;1254;76149;-28
2024/03/18 07:45:54;;;;;;;1.60;1.30;;;;;;;3.78;73.85;98675.36;105841;1257;73247;-28
2024/03/18 07:48:21;;;;;;;1.20;0.80;;;;;;;4.20;71.85;98672.21;105820;1252;61763;-28
2024/03/18 07:50:56;;;;;;;0.70;0.70;;;;;;;4.30;70.58;98669.20;105899;1256;62131;-28
2024/03/18 07:53:23;;;;;;;1.00;0.90;;;;;;;4.45;71.06;98673.23;105877;1254;75229;-29
2024/03/18 07:56:00;;;;;;;0.90;0.80;;;;;;;4.39;70.81;98669.64;105833;1254;75678;-28
2024/03/18 07:58:28;;;;;;;1.10;0.90;;;;;;;3.80;72.57;98662.75;105508;1254;74327;-28
2024/03/18 08:00:55;;;;;;;0.80;0.60;;;;;;;3.78;73.48;98666.24;105710;1254;62533;-28
2024/03/18 08:03:23;;;;;;;0.50;0.50;;;;;;;4.11;72.48;98665.87;105706;1257;61826;-29
2024/03/18 08:05:51;;;;;;;2.20;1.60;;;;;;;4.52;72.30;98669.75;105882;1254;75982;-28
2024/03/18 08:08:18;;;;;;;3.70;1.10;;;;;;;4.24;72.96;98664.91;105978;1257;75820;-30
2024/03/18 08:10:45;;;;;;;2.30;1.30;;;;;;;4.45;72.07;98669.13;105697;1254;74498;-28
2024/03/18 08:13:16;;;;;;;4.90;2.10;;;;;;;4.59;71.29;98669.27;105851;1256;61320;-28
2024/03/18 08:15:46;;;;;;;4.30;2.40;;;;;;;3.78;73.59;98664.58;105852;1256;61616;-28
2024/03/18 08:18:13;;;;;;;1.70;1.20;;;;;;;4.11;73.57;98668.74;105586;1254;76958;-28
2024/03/18 08:20:41;;;;;;;1.10;1.00;;;;;;;4.67;69.58;98667.38;105874;1257;76745;-28
2024/03/18 08:23:08;;;;;;;1.70;1.40;;;;;;;4.85;68.87;98669.22;105842;1254;74586;-35
2024/03/18 08:25:36;;;;;;;3.40;2.30;;;;;;;4.75;69.18;98667.44;105858;1254;61641;-28
2024/03/18 08:28:04;;;;;;;2.90;2.20;;;;;;;4.23;71.12;98669.08;105617;1254;276745;-28
2024/03/18 08:30:31;;;;;;;1.60;1.40;;;;;;;3.57;73.28;98670.41;105743;1254;76376;-28
2024/03/18 08:32:59;;;;;;;1.60;1.10;;;;;;;3.54;74.01;98668.06;105846;1257;75775;-28
2024/03/18 08:35:46;;;;;;;0.90;0.80;;;;;;;4.48;70.77;98670.14;105839;1255;72384;-27
2024/03/18 08:38:13;;;;;;;0.90;0.80;;;;;;;4.24;70.77;98665.22;105871;1254;62075;-28
2024/03/18 08:40:40;;;;;;;1.50;1.00;;;;;;;4.32;70.07;98668.06;105778;1256;61560;-27
2024/03/18 08:43:08;;;;;;;1.30;0.90;;;;;;;3.75;71.34;98667.30;105709;1254;75486;-27
2024/03/18 08:45:36;;;;;;;1.20;0.80;;;;;;;4.08;71.72;98670.17;105637;1254;75706;-28
2024/03/18 08:48:04;;;;;;;1.20;0.90;;;;;;;4.14;70.89;98668.08;105882;1254;74261;-28
2024/03/18 08:50:32;;;;;;;1.00;0.90;;;;;;;4.20;72.36;98672.67;105565;1254;61747;-27
2024/03/18 08:53:01;;;;;;;2.60;1.20;;;;;;;4.45;70.09;98671.88;105856;1257;61853;-27
2024/03/18 08:55:29;;;;;;;0.90;0.70;;;;;;;4.25;69.21;98671.20;105870;1253;76621;-28
2024/03/18 08:57:56;;;;;;;1.40;0.90;;;;;;;4.51;70.65;98674.25;105872;1257;76151;-29
2024/03/18 09:00:25;;;;;;;2.10;1.20;;;;;;;4.68;69.80;98671.63;105837;1254;73522;-28
2024/03/18 09:02:53;;;;;;;2.50;1.10;;;;;;;4.97;68.45;98670.01;105640;1254;61326;-28
2024/03/18 09:05:20;;;;;;;2.90;1.90;;;;;;;4.49;70.32;98668.73;105805;1257;61743;-28
2024/03/18 09:07:48;;;;;;;1.40;0.80;;;;;;;4.29;69.66;98669.42;105758;1254;75746;-28
2024/03/18 09:10:15;;;;;;;1.70;0.80;;;;;;;4.77;66.46;98669.89;105941;1254;75872;-28
2024/03/18 09:12:43;;;;;;;0.80;0.60;;;;;;;4.53;67.45;98670.20;105838;1254;73550;-28
2024/03/18 09:15:10;;;;;;;1.40;0.90;;;;;;;4.87;66.99;98670.45;105686;1254;61760;-28
2024/03/18 09:17:38;;;;;;;4.00;1.70;;;;;;;5.03;66.94;98671.50;105621;1253;61833;-28
2024/03/18 09:20:09;;;;;;;2.10;1.40;;;;;;;4.57;66.67;98670.63;105850;1254;76037;-28
2024/03/18 09:22:37;;;;;;;2.50;1.60;;;;;;;4.80;68.79;98674.52;105706;1259;76532;-28
2024/03/18 09:25:09;;;;;;;1.70;1.20;;;;;;;4.83;66.78;98667.96;105876;1257;74332;-28
2024/03/18 09:27:37;;;;;;;0.60;0.60;;;;;;;4.92;67.38;98665.64;105864;1254;62907;-28
2024/03/18 09:30:05;;;;;;;1.60;1.10;;;;;;;5.21;65.79;98664.14;105748;1254;61301;-27
2024/03/18 09:32:33;;;;;;;2.70;2.00;;;;;;;5.34;64.98;98664.71;105631;1259;76003;-27
2024/03/18 09:35:00;;;;;;;1.40;1.00;;;;;;;5.34;66.61;98669.67;105720;1256;76216;-28
2024/03/18 09:37:29;;;;;;;2.30;1.90;;;;;;;5.20;66.98;98667.67;105823;1254;74090;-27
2024/03/18 09:39:57;;;;;;;1.00;0.90;;;;;;;5.34;66.85;98671.02;105525;1254;61332;-28
2024/03/18 09:42:24;;;;;;;0.80;0.60;;;;;;;5.33;65.31;98664.90;105936;1252;61637;-28
2024/03/18 09:44:51;;;;;;;1.20;0.90;;;;;;;5.18;65.58;98669.16;105837;1254;76120;-27
2024/03/18 09:47:23;;;;;;;1.30;0.60;;;;;;;4.69;66.63;98670.20;105764;1256;75880;-27
2024/03/18 09:50:06;;;;;;;1.30;0.70;;;;;;;5.03;64.69;98665.45;105646;1254;74110;-28
2024/03/18 09:52:36;;;;;;;1.30;0.80;;;;;;;5.36;63.56;98664.36;105751;1254;61413;-28
2024/03/18 09:55:21;;;;;;;1.30;0.90;;;;;;;5.47;63.65;98658.67;105673;1257;61974;-28
2024/03/18 09:57:49;;;;;;;0.90;0.70;;;;;;;5.27;63.37;98659.30;105579;1259;76597;-28
2024/03/18 10:00:17;;;;;;;0.70;0.70;;;;;;;5.22;64.27;98659.95;105796;1254;76195;-28
2024/03/18 10:02:45;;;;;;;2.00;1.20;;;;;;;5.09;66.12;98662.89;105530;1254;74279;-28
2024/03/18 10:05:13;;;;;;;1.40;1.00;;;;;;;5.04;65.42;98661.10;105720;1252;61279;-28
2024/03/18 10:07:43;;;;;;;0.90;0.80;;;;;;;4.85;66.85;98660.77;105644;1253;61301;-28
2024/03/18 10:10:16;;;;;;;0.70;0.70;;;;;;;5.45;64.89;98655.84;105704;1254;75989;-28
2024/03/18 10:12:44;;;;;;;1.10;0.80;;;;;;;5.56;63.91;98650.29;105736;1254;75976;-27
2024/03/18 10:15:12;;;;;;;1.10;0.70;;;;;;;5.44;62.93;98648.17;105955;1254;74496;-28
2024/03/18 10:17:41;;;;;;;0.50;0.50;;;;;;;5.58;63.13;98651.36;105678;1253;61359;-28
2024/03/18 10:20:24;;;;;;;0.90;0.70;;;;;;;5.37;64.11;98652.95;105848;1257;61279;-28
2024/03/18 10:22:52;;;;;;;1.20;0.80;;;;;;;4.69;65.90;98652.98;105723;1254;76498;-28
2024/03/18 10:25:26;;;;;;;1.40;1.10;;;;;;;4.42;65.53;98656.24;105863;1254;75824;-28
2024/03/18 10:27:54;;;;;;;1.50;1.00;;;;;;;4.42;66.21;98655.20;105792;1254;74329;-28
2024/03/18 10:30:22;;;;;;;0.60;0.50;;;;;;;4.31;66.37;98650.04;105878;1254;62920;-28
2024/03/18 10:32:51;;;;;;;0.70;0.70;;;;;;;4.61;66.04;98654.04;105937;1256;61822;-28
2024/03/18 10:35:26;;;;;;;0.50;0.50;;;;;;;5.53;63.80;98648.45;105720;1254;76069;-27
2024/03/18 10:37:56;;;;;;;0.80;0.80;;;;;;;4.87;65.13;98646.70;105535;1254;76323;-27
2024/03/18 10:40:53;;;;;;;2.50;1.50;;;;;;;4.62;66.17;98650.03;105541;1254;71354;-28
2024/03/18 10:43:32;;;;;;;3.10;1.90;;;;;;;4.23;67.44;98652.73;105788;1254;61496;-28
2024/03/18 10:45:59;;;;;;;1.00;0.90;;;;;;;4.11;68.12;98650.39;105711;1258;62914;-27
2024/03/18 10:48:27;;;;;;;1.00;0.90;;;;;;;4.15;67.85;98649.30;105839;1253;76508;-28
2024/03/18 10:50:55;;;;;;;1.20;0.90;;;;;;;4.25;67.57;98655.23;105698;1254;75857;-28
2024/03/18 10:53:25;;;;;;;1.30;1.00;;;;;;;4.80;66.59;98654.52;105724;1254;74192;-28
2024/03/18 10:56:01;;;;;;;0.90;0.80;;;;;;;5.13;64.24;98656.05;105527;1254;61486;-27
2024/03/18 10:58:29;;;;;;;1.40;0.90;;;;;;;4.54;65.09;98657.08;105906;1256;62136;-28
2024/03/18 11:00:56;;;;;;;3.70;0.80;;;;;;;4.87;64.06;98653.42;105915;1254;76125;-28
2024/03/18 11:03:25;;;;;;;0.70;0.70;;;;;;;4.91;64.06;98655.05;105779;1257;74974;-28
2024/03/18 11:05:54;;;;;;;1.80;1.00;;;;;;;4.85;64.61;98657.14;105891;1254;74399;-28
2024/03/18 11:08:23;;;;;;;1.50;1.30;;;;;;;4.58;64.76;98656.79;105666;1254;61482;-27
2024/03/18 11:10:55;;;;;;;0.90;0.80;;;;;;;4.30;66.32;98658.18;105745;1257;61691;-27
2024/03/18 11:13:32;;;;;;;2.10;1.20;;;;;;;4.98;64.31;98658.42;105433;1254;76384;-28
2024/03/18 11:16:07;;;;;;;1.80;1.30;;;;;;;4.98;63.20;98653.05;105774;1253;75870;-27
2024/03/18 11:18:45;;;;;;;2.90;1.50;;;;;;;4.71;64.45;98650.32;105703;1254;73194;-27
2024/03/18 11:21:21;;;;;;;1.80;1.00;;;;;;;4.64;64.94;98651.80;105823;1254;61404;-27
2024/03/18 11:23:59;;;;;;;1.40;1.00;;;;;;;4.49;65.71;98645.01;105696;1260;62026;-27
2024/03/18 11:26:27;;;;;;;1.40;1.00;;;;;;;4.34;66.36;98644.57;105714;1259;76131;-27
2024/03/18 11:29:09;;;;;;;1.60;1.10;;;;;;;4.56;65.26;98643.52;105829;1254;75816;-27
2024/03/18 11:31:38;;;;;;;;;;;;;;;4.29;66.06;98644.69;105683;1254;74257;-27
2024/03/18 11:34:07;;;;;;;1.10;0.80;;;;;;;4.21;65.80;98640.70;105801;1254;61326;-27
2024/03/18 11:36:41;;;;;;;2.60;1.20;;;;;;;4.78;65.52;98641.94;105766;1253;61935;-28
2024/03/18 11:39:12;;;;;;;2.10;1.00;;;;;;;5.13;63.22;98644.20;105721;1260;75528;-27